createdAt,value
2023-02-14T00:01:27.954Z,13.90
2023-02-14T00:04:00.901Z,13.37
2023-02-14T00:06:32.788Z,14.23
2023-02-14T00:09:03.287Z,13.30
2023-02-14T00:11:33.135Z,12.87
2023-02-14T00:14:15.753Z,10.97
2023-02-14T00:16:48.238Z,12.43
2023-02-14T00:19:20.216Z,12.43
2023-02-14T00:21:50.608Z,10.57
2023-02-14T00:24:23.144Z,12.47
2023-02-14T00:26:54.187Z,15.20
2023-02-14T00:29:26.147Z,11.47
2023-02-14T00:31:59.263Z,11.87
2023-02-14T00:34:29.978Z,10.73
2023-02-14T00:37:00.589Z,13.03
2023-02-14T00:39:30.481Z,12.00
2023-02-14T00:42:00.567Z,10.10
2023-02-14T00:44:30.363Z,11.50
2023-02-14T00:47:02.883Z,13.00
2023-02-14T00:49:32.939Z,14.20
2023-02-14T00:52:03.098Z,13.80
2023-02-14T00:54:33.018Z,12.73
2023-02-14T00:57:02.787Z,12.13
2023-02-14T00:59:32.839Z,11.43
2023-02-14T01:02:05.802Z,8.90
2023-02-14T01:04:35.992Z,10.93
2023-02-14T01:07:05.767Z,8.63
2023-02-14T01:09:36.004Z,10.50
2023-02-14T01:12:07.088Z,12.40
2023-02-14T01:14:37.004Z,9.20
2023-02-14T01:17:09.540Z,10.13
2023-02-14T01:19:42.523Z,12.47
2023-02-14T01:22:12.321Z,10.27
2023-02-14T01:24:42.171Z,11.27
2023-02-14T01:27:12.065Z,12.70
2023-02-14T01:29:41.895Z,8.83
2023-02-14T01:32:14.485Z,7.83
2023-02-14T01:34:44.473Z,10.63
2023-02-14T01:37:14.306Z,9.70
2023-02-14T01:39:47.124Z,8.43
2023-02-14T01:42:16.979Z,11.63
2023-02-14T01:45:02.323Z,9.17
2023-02-14T01:47:40.011Z,7.37
2023-02-14T01:50:14.245Z,11.60
2023-02-14T01:52:50.005Z,9.60
2023-02-14T01:55:23.848Z,10.87
2023-02-14T01:58:02.678Z,8.30
2023-02-14T02:00:44.880Z,12.77
2023-02-14T02:03:18.984Z,9.67
2023-02-14T02:05:51.579Z,6.20
2023-02-14T02:08:22.376Z,7.13
2023-02-14T02:10:52.221Z,8.50
2023-02-14T02:13:23.886Z,8.87
2023-02-14T02:16:10.859Z,8.83
2023-02-14T02:18:55.551Z,7.77
2023-02-14T02:21:56.288Z,7.53
2023-02-14T02:24:35.510Z,7.27
2023-02-14T02:27:21.971Z,7.97
2023-02-14T02:30:30.572Z,9.73
2023-02-14T02:33:27.647Z,6.73
2023-02-14T02:36:34.935Z,8.17
2023-02-14T02:39:18.749Z,10.10
2023-02-14T02:41:57.832Z,8.33
2023-02-14T02:44:37.739Z,9.17
2023-02-14T02:47:12.333Z,7.13
2023-02-14T02:50:03.066Z,10.30
2023-02-14T02:52:58.275Z,8.07
2023-02-14T02:55:53.795Z,9.03
2023-02-14T02:58:23.634Z,6.93
2023-02-14T03:00:56.542Z,6.80
2023-02-14T03:03:41.674Z,7.70
2023-02-14T03:06:12.118Z,11.33
2023-02-14T03:08:44.845Z,7.53
2023-02-14T03:11:16.630Z,7.37
2023-02-14T03:14:03.302Z,7.97
2023-02-14T03:16:42.440Z,7.67
2023-02-14T03:19:56.456Z,9.33
2023-02-14T03:22:40.689Z,5.57
2023-02-14T03:25:32.064Z,7.27
2023-02-14T03:28:13.732Z,11.80
2023-02-14T03:30:53.276Z,7.67
2023-02-14T03:33:28.871Z,8.23
2023-02-14T03:36:05.192Z,7.70
2023-02-14T03:38:39.472Z,6.87
2023-02-14T03:41:17.249Z,7.60
2023-02-14T03:43:52.458Z,7.80
2023-02-14T03:46:27.426Z,7.53
2023-02-14T03:48:59.239Z,8.63
2023-02-14T03:51:34.423Z,8.33
2023-02-14T03:54:07.665Z,8.10
2023-02-14T03:56:45.266Z,9.07
2023-02-14T03:59:18.411Z,8.63
2023-02-14T04:01:53.357Z,7.27
2023-02-14T04:04:28.216Z,8.13
2023-02-14T04:06:58.457Z,9.03
2023-02-14T04:09:28.219Z,8.93
2023-02-14T04:12:00.734Z,9.67
2023-02-14T04:14:30.918Z,11.10
2023-02-14T04:17:13.194Z,12.00
2023-02-14T04:19:42.999Z,8.23
2023-02-14T04:22:13.377Z,11.13
2023-02-14T04:24:43.278Z,12.13
2023-02-14T04:27:17.631Z,9.40
2023-02-14T04:29:49.655Z,10.60
2023-02-14T04:32:21.608Z,13.37
2023-02-14T04:34:52.315Z,14.00
2023-02-14T04:37:23.268Z,14.97
2023-02-14T04:39:53.158Z,12.90
2023-02-14T04:42:25.923Z,13.20
2023-02-14T04:44:55.718Z,12.77
2023-02-14T04:47:25.807Z,15.03
2023-02-14T04:49:56.032Z,12.27
2023-02-14T04:52:25.938Z,13.33
2023-02-14T04:54:55.834Z,13.20
2023-02-14T04:57:28.661Z,11.03
2023-02-14T04:59:58.538Z,12.80
2023-02-14T05:02:28.749Z,13.90
2023-02-14T05:04:58.525Z,15.70
2023-02-14T05:07:28.599Z,13.77
2023-02-14T05:09:58.549Z,13.57
2023-02-14T05:12:30.969Z,13.10
2023-02-14T05:15:01.070Z,14.70
2023-02-14T05:17:31.058Z,14.87
2023-02-14T05:20:00.861Z,16.70
2023-02-14T05:22:30.648Z,14.43
2023-02-14T05:25:00.468Z,11.27
2023-02-14T05:27:32.984Z,13.23
2023-02-14T05:30:02.977Z,14.70
2023-02-14T05:32:33.015Z,10.83
2023-02-14T05:35:02.871Z,14.93
2023-02-14T05:37:32.778Z,13.97
2023-02-14T05:40:02.680Z,11.90
2023-02-14T05:42:35.128Z,17.47
2023-02-14T05:45:07.077Z,12.60
2023-02-14T05:47:39.713Z,14.10
2023-02-14T05:50:11.036Z,13.37
2023-02-14T05:52:41.611Z,22.90
2023-02-14T05:55:20.408Z,10.27
2023-02-14T05:57:52.901Z,14.87
2023-02-14T06:00:24.737Z,13.03
2023-02-14T06:02:54.596Z,13.23
2023-02-14T06:05:24.885Z,11.70
2023-02-14T06:07:54.629Z,22.27
2023-02-14T06:10:27.619Z,14.17
2023-02-14T06:13:00.260Z,19.93
2023-02-14T06:15:30.356Z,17.47
2023-02-14T06:18:01.087Z,14.07
2023-02-14T06:20:31.055Z,15.10
2023-02-14T06:23:01.157Z,15.40
2023-02-14T06:25:31.052Z,14.27
2023-02-14T06:28:03.772Z,18.87
2023-02-14T06:30:33.712Z,18.03
2023-02-14T06:33:05.578Z,16.40
2023-02-14T06:35:35.425Z,14.20
2023-02-14T06:38:05.325Z,17.33
2023-02-14T06:40:35.518Z,13.27
2023-02-14T06:43:08.261Z,16.23
2023-02-14T06:45:38.384Z,16.20
2023-02-14T06:48:08.810Z,17.33
2023-02-14T06:50:38.709Z,17.90
2023-02-14T06:53:08.821Z,17.43
2023-02-14T06:55:38.857Z,19.23
2023-02-14T06:58:11.237Z,17.83
2023-02-14T07:00:41.138Z,18.07
2023-02-14T07:03:11.574Z,21.43
2023-02-14T07:05:41.481Z,18.13
2023-02-14T07:08:11.797Z,18.33
2023-02-14T07:10:41.829Z,22.07
2023-02-14T07:13:14.405Z,17.27
2023-02-14T07:15:44.313Z,21.20
2023-02-14T07:18:14.063Z,28.63
2023-02-14T07:20:45.091Z,26.07
2023-02-14T07:23:14.914Z,28.40
2023-02-14T07:25:45.125Z,29.93
2023-02-14T07:28:17.773Z,32.20
2023-02-14T07:30:47.829Z,34.33
2023-02-14T07:33:17.706Z,39.23
2023-02-14T07:35:47.774Z,40.80
2023-02-14T07:38:17.537Z,36.43
2023-02-14T07:40:47.316Z,38.50
2023-02-14T07:43:20.279Z,40.13
2023-02-14T07:45:50.060Z,35.77
2023-02-14T07:48:20.446Z,36.50
2023-02-14T07:50:50.921Z,37.63
2023-02-14T07:53:20.775Z,41.80
2023-02-14T07:55:52.143Z,36.57
2023-02-14T07:58:24.934Z,34.50
2023-02-14T08:00:54.801Z,36.47
2023-02-14T08:03:24.701Z,37.83
2023-02-14T08:05:57.408Z,31.00
2023-02-14T08:08:28.957Z,40.27
2023-02-14T08:10:59.502Z,30.27
2023-02-14T08:13:32.183Z,44.57
2023-02-14T08:16:09.817Z,27.63
2023-02-14T08:18:41.927Z,28.63
2023-02-14T08:21:13.936Z,26.57
2023-02-14T08:23:43.727Z,25.37
2023-02-14T08:26:13.797Z,24.73
2023-02-14T08:28:46.401Z,28.70
2023-02-14T08:31:21.333Z,26.37
2023-02-14T08:33:56.692Z,26.00
2023-02-14T08:36:26.475Z,27.20
2023-02-14T08:38:57.899Z,26.97
2023-02-14T08:41:28.025Z,26.10
2023-02-14T08:44:12.217Z,27.90
2023-02-14T08:46:42.166Z,33.80
2023-02-14T08:49:12.759Z,28.83
2023-02-14T08:51:42.519Z,33.90
2023-02-14T08:54:12.289Z,30.60
2023-02-14T08:56:42.499Z,29.27
2023-02-14T08:59:14.909Z,32.00
2023-02-14T09:01:44.787Z,28.10
2023-02-14T09:04:14.977Z,24.90
2023-02-14T09:06:44.904Z,24.03
2023-02-14T09:09:14.888Z,26.93
2023-02-14T09:11:47.761Z,29.47
2023-02-14T09:14:21.183Z,24.60
2023-02-14T09:16:51.067Z,23.97
2023-02-14T09:19:21.038Z,26.70
2023-02-14T09:21:50.918Z,27.07
2023-02-14T09:24:20.758Z,26.17
2023-02-14T09:26:50.843Z,26.10
2023-02-14T09:29:23.394Z,27.90
2023-02-14T09:31:55.789Z,26.43
2023-02-14T09:34:25.996Z,27.17
2023-02-14T09:36:56.032Z,22.43
2023-02-14T09:39:26.125Z,23.00
2023-02-14T09:42:20.099Z,25.80
2023-02-14T09:44:57.626Z,33.73
2023-02-14T09:47:37.179Z,31.83
2023-02-14T09:50:09.304Z,23.57
2023-02-14T09:52:39.141Z,25.07
2023-02-14T09:55:16.741Z,20.07
2023-02-14T09:58:01.923Z,24.03
2023-02-14T10:00:40.580Z,23.67
2023-02-14T10:03:31.803Z,25.43
2023-02-14T10:06:06.310Z,23.97
2023-02-14T10:08:50.248Z,27.47
2023-02-14T10:11:23.297Z,27.63
2023-02-14T10:13:58.147Z,23.27
2023-02-14T10:16:35.348Z,22.77
2023-02-14T10:19:08.974Z,25.70
2023-02-14T10:21:45.506Z,25.77
2023-02-14T10:24:20.730Z,23.27
2023-02-14T10:26:52.777Z,23.93
2023-02-14T10:29:23.170Z,21.67
2023-02-14T10:32:01.137Z,22.47
2023-02-14T10:34:40.530Z,22.50
2023-02-14T10:37:26.048Z,25.07
2023-02-14T10:40:21.212Z,21.67
2023-02-14T10:43:00.657Z,20.70
2023-02-14T10:45:39.205Z,20.73
2023-02-14T10:48:22.291Z,19.73
2023-02-14T10:50:59.981Z,19.33
2023-02-14T10:53:38.411Z,21.70
2023-02-14T10:56:12.242Z,19.67
2023-02-14T10:58:44.216Z,22.60
2023-02-14T11:01:18.571Z,20.43
2023-02-14T11:03:58.704Z,18.03
2023-02-14T11:06:28.523Z,20.23
2023-02-14T11:08:58.719Z,18.23
2023-02-14T11:11:35.086Z,20.70
2023-02-14T11:14:22.274Z,21.07
2023-02-14T11:16:54.619Z,18.90
2023-02-14T11:19:29.572Z,22.63
2023-02-14T11:22:01.268Z,22.03
2023-02-14T11:24:32.961Z,17.97
2023-02-14T11:27:05.594Z,22.83
2023-02-14T11:29:40.065Z,20.33
2023-02-14T11:32:12.380Z,24.33
2023-02-14T11:34:48.379Z,19.83
2023-02-14T11:37:29.406Z,20.03
2023-02-14T11:40:01.492Z,26.03
2023-02-14T11:42:43.574Z,25.60
2023-02-14T11:45:32.651Z,18.03
2023-02-14T11:48:34.913Z,24.30
2023-02-14T11:51:14.106Z,20.30
2023-02-14T11:53:49.198Z,22.70
2023-02-14T11:56:21.375Z,24.60
2023-02-14T11:58:56.037Z,21.30
2023-02-14T12:01:28.990Z,21.07
2023-02-14T12:04:02.250Z,19.20
2023-02-14T12:06:38.484Z,20.13
2023-02-14T12:09:16.641Z,20.57
2023-02-14T12:11:58.496Z,20.97
2023-02-14T12:14:33.239Z,20.80
2023-02-14T12:17:09.989Z,19.20
2023-02-14T12:19:48.668Z,19.83
2023-02-14T12:22:27.460Z,19.53
2023-02-14T12:25:05.594Z,18.47
2023-02-14T12:27:46.921Z,17.63
2023-02-14T12:30:19.796Z,17.53
2023-02-14T12:32:52.505Z,24.90
2023-02-14T12:35:33.904Z,19.27
2023-02-14T12:38:13.771Z,23.00
2023-02-14T12:40:54.307Z,25.33
2023-02-14T12:43:45.355Z,23.77
2023-02-14T12:46:31.766Z,18.03
2023-02-14T12:49:19.072Z,23.13
2023-02-14T12:51:57.335Z,19.60
2023-02-14T12:54:45.992Z,23.37
2023-02-14T12:57:30.638Z,24.23
2023-02-14T13:00:12.662Z,29.97
2023-02-14T13:02:57.826Z,23.60
2023-02-14T13:05:37.445Z,22.03
2023-02-14T13:08:20.514Z,26.20
2023-02-14T13:11:03.469Z,22.07
2023-02-14T13:13:45.930Z,25.87
2023-02-14T13:16:22.274Z,28.90
2023-02-14T13:18:57.068Z,25.23
2023-02-14T13:21:29.803Z,24.33
2023-02-14T13:24:06.779Z,27.90
2023-02-14T13:26:43.415Z,25.80
2023-02-14T13:29:16.531Z,21.50
2023-02-14T13:31:47.167Z,29.67
2023-02-14T13:34:28.529Z,20.03
2023-02-14T13:37:01.070Z,22.90
2023-02-14T13:39:38.493Z,27.47
2023-02-14T13:42:12.004Z,25.07
2023-02-14T13:44:46.533Z,21.03
2023-02-14T13:47:23.028Z,17.20
2023-02-14T13:49:57.646Z,16.97
2023-02-14T13:52:45.223Z,19.07
2023-02-14T13:55:22.090Z,18.63
2023-02-14T13:58:06.992Z,15.50
2023-02-14T14:00:42.916Z,21.43
2023-02-14T14:03:16.963Z,17.37
2023-02-14T14:06:02.919Z,20.47
2023-02-14T14:08:44.225Z,20.07
2023-02-14T14:11:30.406Z,19.17
2023-02-14T14:14:05.308Z,22.67
2023-02-14T14:16:37.290Z,17.13
2023-02-14T14:19:30.009Z,21.53
2023-02-14T14:22:05.653Z,16.53
2023-02-14T14:24:36.927Z,21.57
2023-02-14T14:27:15.175Z,16.90
2023-02-14T14:29:52.849Z,19.13
2023-02-14T14:32:28.235Z,17.37
2023-02-14T14:35:00.142Z,17.77
2023-02-14T14:37:31.608Z,18.13
2023-02-14T14:40:03.231Z,23.33
2023-02-14T14:42:39.045Z,18.57
2023-02-14T14:45:23.776Z,23.53
2023-02-14T14:47:56.266Z,17.97
2023-02-14T14:50:29.520Z,18.93
2023-02-14T14:53:03.641Z,19.43
2023-02-14T14:55:36.484Z,17.80
2023-02-14T14:58:09.026Z,22.60
2023-02-14T15:00:42.719Z,19.70
2023-02-14T15:03:18.811Z,21.97
2023-02-14T15:05:51.186Z,22.17
2023-02-14T15:08:27.947Z,21.23
2023-02-14T15:11:02.414Z,29.27
2023-02-14T15:13:49.952Z,23.97
2023-02-14T15:16:25.173Z,24.73
2023-02-14T15:19:00.112Z,19.97
2023-02-14T15:21:31.555Z,23.57
2023-02-14T15:24:01.567Z,35.30
2023-02-14T15:26:35.904Z,27.30
2023-02-14T15:29:07.967Z,24.27
2023-02-14T15:31:43.695Z,23.67
2023-02-14T15:34:15.137Z,25.53
2023-02-14T15:36:52.251Z,34.27
2023-02-14T15:39:25.733Z,23.13
2023-02-14T15:41:56.638Z,23.30
2023-02-14T15:44:29.116Z,22.53
2023-02-14T15:47:05.663Z,22.83
2023-02-14T15:49:38.545Z,23.20
2023-02-14T15:52:09.920Z,29.47
2023-02-14T15:54:41.924Z,30.93
2023-02-14T15:57:25.969Z,25.43
2023-02-14T15:59:56.816Z,27.50
2023-02-14T16:02:38.265Z,19.37
2023-02-14T16:05:12.161Z,22.33
2023-02-14T16:07:44.012Z,27.90
2023-02-14T16:10:24.446Z,24.60
2023-02-14T16:13:00.082Z,23.37
2023-02-14T16:15:31.925Z,28.83
2023-02-14T16:18:08.303Z,29.97
2023-02-14T16:20:47.451Z,22.33
2023-02-14T16:23:23.169Z,27.83
2023-02-14T16:25:53.926Z,36.27
2023-02-14T16:28:24.542Z,33.57
2023-02-14T16:30:58.702Z,30.60
2023-02-14T16:33:33.171Z,27.17
2023-02-14T16:36:09.597Z,34.80
2023-02-14T16:38:45.457Z,30.00
2023-02-14T16:41:24.215Z,37.67
2023-02-14T16:43:54.497Z,32.70
2023-02-14T16:46:26.362Z,32.40
2023-02-14T16:48:59.484Z,31.73
2023-02-14T16:51:32.421Z,37.37
2023-02-14T16:54:03.964Z,30.93
2023-02-14T16:56:40.243Z,39.37
2023-02-14T16:59:11.004Z,29.10
2023-02-14T17:01:41.120Z,25.10
2023-02-14T17:04:13.655Z,27.73
2023-02-14T17:06:48.906Z,23.73
2023-02-14T17:09:20.954Z,21.67
2023-02-14T17:11:53.898Z,19.30
2023-02-14T17:14:27.357Z,29.80
2023-02-14T17:16:58.106Z,37.00
2023-02-14T17:19:34.134Z,26.87
2023-02-14T17:22:04.609Z,28.30
2023-02-14T17:24:34.762Z,30.13
2023-02-14T17:27:04.603Z,28.57
2023-02-14T17:29:34.473Z,29.87
2023-02-14T17:32:04.348Z,32.33
2023-02-14T17:34:37.390Z,24.20
2023-02-14T17:37:07.273Z,25.20
2023-02-14T17:39:37.098Z,27.03
2023-02-14T17:42:07.380Z,34.53
2023-02-14T17:44:37.683Z,22.27
2023-02-14T17:47:07.835Z,26.73
2023-02-14T17:49:40.345Z,25.90
2023-02-14T17:52:10.481Z,22.37
2023-02-14T17:54:41.176Z,24.30
2023-02-14T17:57:12.658Z,27.53
2023-02-14T17:59:42.890Z,26.00
2023-02-14T18:02:15.023Z,25.67
2023-02-14T18:04:48.832Z,22.07
2023-02-14T18:07:19.270Z,20.70
2023-02-14T18:09:49.413Z,27.30
2023-02-14T18:12:19.316Z,30.93
2023-02-14T18:14:49.475Z,38.40
2023-02-14T18:17:19.639Z,28.13
2023-02-14T18:19:52.219Z,30.13
2023-02-14T18:22:25.229Z,33.93
2023-02-14T18:24:58.960Z,24.90
2023-02-14T18:27:29.108Z,32.60
2023-02-14T18:29:59.002Z,30.67
2023-02-14T18:32:28.923Z,30.07
2023-02-14T18:35:01.460Z,28.17
2023-02-14T18:37:31.350Z,23.20
2023-02-14T18:40:01.405Z,22.67
2023-02-14T18:42:31.658Z,25.00
2023-02-14T18:45:01.506Z,27.03
2023-02-14T18:47:31.330Z,27.10
2023-02-14T18:50:03.785Z,20.40
2023-02-14T18:52:33.981Z,27.77
2023-02-14T18:55:03.839Z,18.37
2023-02-14T18:57:34.204Z,18.80
2023-02-14T19:00:06.748Z,25.10
2023-02-14T19:02:37.285Z,28.60
2023-02-14T19:05:10.781Z,30.23
2023-02-14T19:07:40.647Z,25.73
2023-02-14T19:10:12.208Z,29.67
2023-02-14T19:12:42.134Z,25.53
2023-02-14T19:15:13.021Z,23.77
2023-02-14T19:17:42.970Z,32.53
2023-02-14T19:20:17.034Z,25.40
2023-02-14T19:22:46.864Z,25.23
2023-02-14T19:25:16.867Z,24.80
2023-02-14T19:27:49.410Z,28.23
2023-02-14T19:30:19.789Z,28.67
2023-02-14T19:32:50.276Z,27.23
2023-02-14T19:35:23.129Z,23.93
2023-02-14T19:37:55.445Z,26.47
2023-02-14T19:40:25.563Z,30.17
2023-02-14T19:42:55.495Z,27.60
2023-02-14T19:45:25.323Z,23.27
2023-02-14T19:47:55.193Z,25.80
2023-02-14T19:50:27.877Z,21.87
2023-02-14T19:52:57.919Z,28.17
2023-02-14T19:55:28.118Z,23.53
2023-02-14T19:57:57.958Z,22.03
2023-02-14T20:00:30.728Z,30.97
2023-02-14T20:03:03.416Z,25.30
2023-02-14T20:05:36.281Z,28.47
2023-02-14T20:08:06.376Z,30.77
2023-02-14T20:10:36.270Z,30.90
2023-02-14T20:13:06.060Z,26.17
2023-02-14T20:15:37.870Z,26.43
2023-02-14T20:18:08.050Z,25.00
2023-02-14T20:20:52.767Z,25.13
2023-02-14T20:23:22.580Z,29.13
2023-02-14T20:25:52.735Z,27.07
2023-02-14T20:28:22.641Z,23.07
2023-02-14T20:30:52.950Z,28.87
2023-02-14T20:33:22.914Z,29.43
2023-02-14T20:35:55.396Z,24.90
2023-02-14T20:38:25.483Z,23.17
2023-02-14T20:40:55.442Z,22.33
2023-02-14T20:43:26.784Z,23.93
2023-02-14T20:46:01.557Z,24.60
2023-02-14T20:48:31.815Z,20.93
2023-02-14T20:51:13.779Z,25.63
2023-02-14T20:53:44.462Z,22.17
2023-02-14T20:56:15.132Z,21.60
2023-02-14T20:58:45.517Z,26.37
2023-02-14T21:01:17.295Z,21.10
2023-02-14T21:03:50.809Z,24.27
2023-02-14T21:06:26.768Z,22.17
2023-02-14T21:08:57.167Z,23.63
2023-02-14T21:11:28.050Z,28.33
2023-02-14T21:13:59.940Z,26.57
2023-02-14T21:16:31.697Z,22.63
2023-02-14T21:19:02.854Z,22.53
2023-02-14T21:21:39.441Z,25.60
2023-02-14T21:24:12.027Z,27.50
2023-02-14T21:26:42.343Z,28.03
2023-02-14T21:29:13.409Z,25.60
2023-02-14T21:31:43.333Z,25.27
2023-02-14T21:34:13.490Z,22.83
2023-02-14T21:36:46.010Z,28.53
2023-02-14T21:39:16.797Z,20.43
2023-02-14T21:41:46.867Z,25.00
2023-02-14T21:44:40.821Z,20.73
2023-02-14T21:47:08.092Z,27.03
2023-02-14T21:49:50.522Z,21.37
2023-02-14T21:52:23.228Z,25.83
2023-02-14T21:54:53.482Z,23.03
2023-02-14T21:57:23.234Z,26.47
2023-02-14T21:59:53.360Z,20.67
2023-02-14T22:02:23.302Z,22.67
2023-02-14T22:04:53.168Z,22.30
2023-02-14T22:07:25.876Z,24.20
2023-02-14T22:09:55.672Z,21.70
2023-02-14T22:12:25.494Z,26.53
2023-02-14T22:14:55.741Z,21.53
2023-02-14T22:17:25.579Z,26.93
2023-02-14T22:19:55.491Z,23.00
2023-02-14T22:22:28.096Z,21.53
2023-02-14T22:24:58.121Z,25.83
2023-02-14T22:27:28.297Z,24.50
2023-02-14T22:29:58.133Z,22.87
2023-02-14T22:32:28.430Z,22.73
2023-02-14T22:34:58.250Z,19.77
2023-02-14T22:37:30.880Z,22.17
2023-02-14T22:40:00.968Z,24.43
2023-02-14T22:42:30.735Z,25.27
2023-02-14T22:45:00.522Z,23.00
2023-02-14T22:47:30.625Z,20.03
2023-02-14T22:50:01.425Z,21.03
2023-02-14T22:52:34.234Z,20.20
2023-02-14T22:55:04.366Z,23.60
2023-02-14T22:57:35.299Z,22.53
2023-02-14T23:00:05.055Z,22.40
2023-02-14T23:02:34.992Z,28.07
2023-02-14T23:05:05.149Z,22.60
2023-02-14T23:07:37.650Z,21.93
2023-02-14T23:10:11.478Z,22.63
2023-02-14T23:12:53.751Z,25.57
2023-02-14T23:15:35.949Z,21.27
2023-02-14T23:18:19.594Z,25.57
2023-02-14T23:21:02.001Z,23.27
2023-02-14T23:23:39.547Z,21.73
2023-02-14T23:26:09.426Z,23.67
2023-02-14T23:28:39.364Z,23.37
2023-02-14T23:31:09.285Z,23.40
2023-02-14T23:33:39.231Z,24.40
2023-02-14T23:36:09.246Z,20.20
2023-02-14T23:38:44.461Z,20.57
2023-02-14T23:41:26.897Z,26.00
2023-02-14T23:44:00.184Z,21.77
2023-02-14T23:46:29.949Z,22.83
2023-02-14T23:48:59.824Z,20.63
2023-02-14T23:51:29.767Z,20.93
2023-02-14T23:54:04.269Z,26.37
2023-02-14T23:56:34.642Z,28.47
2023-02-14T23:59:06.614Z,22.37
